Time;durP1;ratioP1;P1;durP2;ratioP2;P2;SDS_P1;SDS_P2;PMS_P1;PMS_P2;Temp;Humidity;BMP_temperature;BMP_pressure;BME280_temperature;BME280_humidity;BME280_pressure;Samples;Min_cycle;Max_cycle;Signal;HPM_P1;HPM_P2
2023/07/13 00:01:31;;;;;;;1.60;0.77;;;17.80;98.90;;;;;;5035714;28;20047;-50
2023/07/13 00:03:58;;;;;;;3.63;1.10;;;17.70;99.50;;;;;;5053276;28;20033;-53
2023/07/13 00:06:23;;;;;;;7.18;1.40;;;17.70;99.40;;;;;;5053396;28;20034;-53
2023/07/13 00:08:49;;;;;;;4.28;1.20;;;17.70;99.10;;;;;;5035688;28;20416;-47
2023/07/13 00:11:16;;;;;;;3.33;0.88;;;17.70;99.10;;;;;;5053167;28;20060;-52
2023/07/13 00:13:43;;;;;;;4.68;1.10;;;17.70;99.20;;;;;;5052901;28;20037;-52
2023/07/13 00:16:10;;;;;;;2.65;1.00;;;17.70;99.10;;;;;;5053051;28;20033;-53
2023/07/13 00:18:37;;;;;;;2.63;1.20;;;17.70;99.10;;;;;;5053104;28;20469;-52
2023/07/13 00:21:06;;;;;;;3.20;0.95;;;17.70;99.20;;;;;;5035581;28;20036;-49
2023/07/13 00:23:37;;;;;;;2.40;0.80;;;17.80;99.20;;;;;;5053011;28;20033;-53
2023/07/13 00:26:04;;;;;;;4.15;0.70;;;17.80;99.10;;;;;;5052574;28;20039;-53
2023/07/13 00:28:30;;;;;;;2.97;0.70;;;17.80;99.00;;;;;;5035617;28;20061;-50
2023/07/13 00:30:55;;;;;;;4.70;1.10;;;17.80;98.90;;;;;;5053522;28;20036;-53
2023/07/13 00:33:22;;;;;;;2.30;0.63;;;17.90;98.90;;;;;;5052946;28;20025;-49
2023/07/13 00:35:49;;;;;;;4.32;0.90;;;17.80;99.00;;;;;;5034967;28;20025;-52
2023/07/13 00:38:15;;;;;;;1.95;0.60;;;17.80;99.00;;;;;;5053501;28;20025;-50
2023/07/13 00:40:40;;;;;;;2.78;0.80;;;17.70;99.20;;;;;;5034993;28;20083;-52
2023/07/13 00:43:19;;;;;;;2.38;1.13;;;17.70;99.40;;;;;;5052399;28;20036;-53
2023/07/13 00:45:45;;;;;;;4.53;1.57;;;17.60;99.60;;;;;;5037128;28;20535;-53
2023/07/13 00:48:13;;;;;;;3.13;1.10;;;17.60;99.50;;;;;;5056645;28;20033;-52
2023/07/13 00:50:39;;;;;;;3.50;0.80;;;17.60;99.70;;;;;;5039218;28;20068;-53
2023/07/13 00:53:05;;;;;;;1.88;0.90;;;17.60;99.70;;;;;;5056203;28;20376;-53
2023/07/13 00:55:31;;;;;;;3.05;0.90;;;17.50;99.90;;;;;;5038394;28;20128;-53
2023/07/13 00:57:58;;;;;;;2.83;1.00;;;17.50;99.90;;;;;;5038903;28;20123;-51
2023/07/13 01:00:25;;;;;;;3.25;1.25;;;17.50;99.90;;;;;;5056587;28;20090;-50
2023/07/13 01:02:51;;;;;;;5.70;1.20;;;17.50;99.90;;;;;;5056518;28;20075;-53
2023/07/13 01:05:20;;;;;;;7.75;0.90;;;17.50;99.90;;;;;;5038200;28;20028;-51
2023/07/13 01:07:48;;;;;;;3.10;0.95;;;17.50;99.90;;;;;;5038501;28;20040;-51
2023/07/13 01:10:13;;;;;;;2.33;0.97;;;17.50;99.90;;;;;;5056298;28;20394;-52
2023/07/13 01:12:39;;;;;;;6.43;1.25;;;17.40;99.90;;;;;;5037851;28;20460;-52
2023/07/13 01:15:25;;;;;;;5.00;1.00;;;17.40;99.90;;;;;;5038337;28;20033;-52
2023/07/13 01:17:51;;;;;;;3.28;1.02;;;17.30;99.90;;;;;;5056994;28;20040;-51
2023/07/13 01:20:17;;;;;;;3.67;1.20;;;17.20;99.90;;;;;;5037969;28;20033;-52
2023/07/13 01:22:42;;;;;;;2.80;1.02;;;17.20;99.90;;;;;;5037614;28;20055;-50
2023/07/13 01:25:08;;;;;;;3.50;1.05;;;17.10;99.90;;;;;;5037684;28;20153;-52
2023/07/13 01:27:34;;;;;;;4.18;1.35;;;17.10;99.90;;;;;;5056077;28;20025;-53
2023/07/13 01:30:03;;;;;;;4.90;0.73;;;17.10;99.90;;;;;;5038143;28;20079;-51
2023/07/13 01:32:31;;;;;;;3.70;0.85;;;17.00;99.90;;;;;;5055683;28;20083;-50
2023/07/13 01:34:56;;;;;;;4.57;1.10;;;17.00;99.90;;;;;;5055517;28;20037;-53
2023/07/13 01:37:26;;;;;;;5.80;1.00;;;17.00;99.90;;;;;;5037591;28;20033;-51
2023/07/13 01:39:52;;;;;;;2.97;1.08;;;17.00;99.90;;;;;;5038131;28;20045;-47
2023/07/13 01:42:18;;;;;;;3.83;0.93;;;17.00;99.90;;;;;;5055651;28;20043;-51
2023/07/13 01:44:44;;;;;;;3.72;1.38;;;17.00;99.90;;;;;;5037518;28;20036;-52
2023/07/13 01:47:10;;;;;;;5.68;1.00;;;17.00;99.90;;;;;;5055318;28;20389;-51
2023/07/13 01:49:37;;;;;;;7.22;1.10;;;17.00;99.90;;;;;;5037472;28;20044;-48
2023/07/13 01:52:03;;;;;;;5.32;1.08;;;17.00;99.90;;;;;;5037854;28;20040;-51
2023/07/13 01:54:30;;;;;;;3.78;1.17;;;17.00;99.90;;;;;;5037140;28;20024;-51
2023/07/13 01:56:56;;;;;;;1.63;1.10;;;17.00;99.90;;;;;;5054970;28;20033;-52
2023/07/13 01:59:22;;;;;;;1.77;0.68;;;17.00;99.90;;;;;;5037626;28;20035;-53
2023/07/13 02:01:48;;;;;;;3.35;0.80;;;17.00;99.90;;;;;;5037265;28;20053;-50
2023/07/13 02:04:13;;;;;;;3.92;0.82;;;17.00;99.90;;;;;;5036945;28;20029;-48
2023/07/13 02:06:39;;;;;;;3.13;0.73;;;16.90;99.90;;;;;;5055485;28;20029;-52
2023/07/13 02:09:04;;;;;;;4.18;0.63;;;16.90;99.90;;;;;;5055720;28;20031;-51
2023/07/13 02:11:32;;;;;;;3.08;0.88;;;16.80;99.90;;;;;;5037697;28;20065;-50
2023/07/13 02:14:02;;;;;;;2.25;0.80;;;16.80;99.90;;;;;;5055359;28;20454;-52
2023/07/13 02:16:31;;;;;;;4.63;1.10;;;16.80;99.90;;;;;;5036964;28;20029;-51
2023/07/13 02:18:57;;;;;;;3.60;1.58;;;16.70;99.90;;;;;;5055604;28;20051;-53
2023/07/13 02:21:23;;;;;;;3.00;0.98;;;16.70;99.90;;;;;;5037047;28;20573;-52
2023/07/13 02:23:52;;;;;;;2.50;0.88;;;16.60;99.90;;;;;;5054979;28;20056;-52
2023/07/13 02:26:17;;;;;;;4.82;1.00;;;16.60;99.90;;;;;;5036959;28;20068;-50
2023/07/13 02:28:43;;;;;;;4.20;0.88;;;16.60;99.90;;;;;;5054836;28;20072;-48
2023/07/13 02:31:12;;;;;;;2.58;0.80;;;16.50;99.90;;;;;;5037051;28;20127;-51
2023/07/13 02:33:38;;;;;;;;;;;16.40;99.90;;;;;;5037334;28;20120;-52
2023/07/13 02:36:05;;;;;;;4.13;1.15;;;16.30;99.90;;;;;;5053106;28;19951;-49
2023/07/13 02:38:33;;;;;;;3.83;1.13;;;16.30;99.90;;;;;;5054850;28;20036;-48
2023/07/13 02:41:01;;;;;;;3.05;0.95;;;16.30;99.90;;;;;;5036622;28;20032;-49
2023/07/13 02:43:27;;;;;;;3.25;0.90;;;16.30;99.90;;;;;;5036857;28;20041;-50
2023/07/13 02:45:52;;;;;;;3.33;1.17;;;16.30;99.90;;;;;;5036542;28;20078;-52
2023/07/13 02:48:18;;;;;;;3.58;1.05;;;16.30;99.90;;;;;;5036428;28;20033;-51
2023/07/13 02:50:44;;;;;;;3.50;1.30;;;16.30;99.90;;;;;;5036389;28;20036;-52
2023/07/13 02:53:10;;;;;;;3.15;1.17;;;16.30;99.90;;;;;;5054239;28;20024;-52
2023/07/13 02:55:36;;;;;;;2.90;1.10;;;16.30;99.90;;;;;;5054191;28;20028;-52
2023/07/13 02:58:02;;;;;;;4.50;1.02;;;16.20;99.90;;;;;;5036616;28;20371;-50
2023/07/13 03:00:27;;;;;;;5.05;1.27;;;16.20;99.90;;;;;;5035885;28;20208;-51
2023/07/13 03:02:56;;;;;;;3.88;1.10;;;16.20;99.90;;;;;;5036227;28;20113;-52
2023/07/13 03:05:23;;;;;;;5.35;1.27;;;16.20;99.90;;;;;;5036527;28;20052;-52
2023/07/13 03:07:49;;;;;;;5.75;1.60;;;16.10;99.90;;;;;;5036553;28;20048;-50
2023/07/13 03:10:16;;;;;;;2.53;0.95;;;16.10;99.90;;;;;;5035731;28;20034;-52
2023/07/13 03:12:46;;;;;;;3.20;1.30;;;16.10;99.90;;;;;;5035837;28;20041;-52
2023/07/13 03:15:20;;;;;;;3.60;1.10;;;16.10;99.90;;;;;;5035927;28;20029;-52
2023/07/13 03:17:47;;;;;;;4.15;1.20;;;16.10;99.90;;;;;;5036519;28;20028;-49
2023/07/13 03:20:13;;;;;;;6.18;1.20;;;16.10;99.90;;;;;;5036115;28;20115;-52
2023/07/13 03:22:39;;;;;;;5.57;1.20;;;16.10;99.90;;;;;;5035583;28;20095;-51
2023/07/13 03:25:05;;;;;;;3.10;1.13;;;16.00;99.90;;;;;;5054217;28;20029;-51
2023/07/13 03:27:30;;;;;;;3.63;0.95;;;15.90;99.90;;;;;;5036062;28;20382;-50
2023/07/13 03:29:56;;;;;;;4.05;1.25;;;15.90;99.90;;;;;;5054461;28;20036;-52
2023/07/13 03:32:22;;;;;;;3.20;0.70;;;15.80;99.90;;;;;;5035709;28;20025;-50
2023/07/13 03:34:48;;;;;;;4.50;1.10;;;15.80;99.90;;;;;;5036189;28;20025;-52
2023/07/13 03:37:13;;;;;;;2.40;0.90;;;15.70;99.90;;;;;;5036127;28;20075;-52
2023/07/13 03:39:40;;;;;;;2.95;1.08;;;15.70;99.90;;;;;;5035921;28;20493;-49
2023/07/13 03:42:06;;;;;;;2.53;1.00;;;15.70;99.90;;;;;;5035762;28;20039;-52
2023/07/13 03:44:32;;;;;;;2.67;1.33;;;15.70;99.90;;;;;;5036220;28;20029;-51
2023/07/13 03:46:58;;;;;;;2.45;1.00;;;15.70;99.90;;;;;;5036361;28;20028;-52
2023/07/13 03:49:23;;;;;;;3.97;1.60;;;15.70;99.90;;;;;;5053335;28;20029;-52
2023/07/13 03:51:49;;;;;;;3.53;1.00;;;15.70;99.90;;;;;;5035475;28;20041;-51
2023/07/13 03:54:15;;;;;;;5.82;1.15;;;15.70;99.90;;;;;;5035612;28;20033;-50
2023/07/13 03:56:41;;;;;;;5.68;1.30;;;15.70;99.90;;;;;;5036091;28;20175;-52
2023/07/13 03:59:08;;;;;;;3.97;1.20;;;15.80;99.90;;;;;;5035755;28;20074;-52
2023/07/13 04:01:34;;;;;;;4.38;1.20;;;15.80;99.90;;;;;;5053910;28;20108;-52
2023/07/13 04:04:00;;;;;;;4.50;1.10;;;15.80;99.90;;;;;;5054083;28;20351;-52
2023/07/13 04:06:29;;;;;;;6.32;1.13;;;15.80;99.90;;;;;;5053462;28;20110;-52
2023/07/13 04:08:57;;;;;;;3.47;0.95;;;15.90;99.90;;;;;;5035597;28;20520;-52
2023/07/13 04:11:26;;;;;;;4.32;1.20;;;15.80;99.90;;;;;;5053917;28;20032;-50
2023/07/13 04:13:51;;;;;;;3.22;1.25;;;16.00;99.90;;;;;;5035100;28;20324;-51
2023/07/13 04:16:18;;;;;;;6.75;1.45;;;16.00;99.90;;;;;;5053048;28;20033;-52
2023/07/13 04:18:45;;;;;;;3.63;1.40;;;16.00;99.90;;;;;;5053565;28;20052;-49
2023/07/13 04:21:12;;;;;;;2.38;1.13;;;16.00;99.90;;;;;;5056354;28;20508;-52
2023/07/13 04:23:38;;;;;;;4.10;1.60;;;16.00;99.90;;;;;;5057269;28;20112;-52
2023/07/13 04:26:05;;;;;;;3.17;1.58;;;16.10;99.90;;;;;;5057525;28;20035;-49
2023/07/13 04:28:30;;;;;;;7.05;1.20;;;16.10;99.90;;;;;;5057184;28;20375;-52
2023/07/13 04:30:56;;;;;;;3.08;1.27;;;16.00;99.90;;;;;;5057066;28;20120;-52
2023/07/13 04:33:23;;;;;;;5.43;1.30;;;16.10;99.90;;;;;;5056760;28;20288;-52
2023/07/13 04:35:49;;;;;;;5.57;1.27;;;16.00;99.90;;;;;;5056820;28;20044;-52
2023/07/13 04:38:15;;;;;;;3.03;1.20;;;16.00;99.90;;;;;;5056885;28;20024;-51
2023/07/13 04:40:45;;;;;;;3.03;1.10;;;16.00;99.90;;;;;;5057842;28;20378;-48
2023/07/13 04:43:10;;;;;;;2.10;1.10;;;16.00;99.90;;;;;;5056976;28;20041;-52
2023/07/13 04:45:36;;;;;;;5.43;1.30;;;16.00;99.90;;;;;;5057794;28;20037;-49
2023/07/13 04:48:02;;;;;;;8.63;2.15;;;16.10;99.90;;;;;;5057476;28;20032;-51
2023/07/13 04:50:28;;;;;;;5.45;1.90;;;16.10;99.90;;;;;;5056971;28;20056;-51
2023/07/13 04:52:53;;;;;;;5.50;1.50;;;16.00;99.90;;;;;;5056322;28;20029;-48
2023/07/13 04:55:19;;;;;;;4.38;1.05;;;16.10;99.90;;;;;;5055947;28;20086;-50
2023/07/13 04:57:46;;;;;;;4.93;1.70;;;16.10;99.90;;;;;;5056290;28;20025;-51
2023/07/13 05:00:12;;;;;;;4.63;1.60;;;16.00;99.90;;;;;;5038996;28;20385;-50
2023/07/13 05:02:39;;;;;;;6.22;1.90;;;16.10;99.90;;;;;;5038749;28;20043;-52
2023/07/13 05:05:06;;;;;;;7.00;1.92;;;16.10;99.90;;;;;;5056564;28;20025;-48
2023/07/13 05:07:32;;;;;;;5.25;1.40;;;16.20;99.90;;;;;;5056550;28;20037;-51
2023/07/13 05:09:59;;;;;;;8.13;1.88;;;16.20;99.90;;;;;;5056680;28;20311;-52
2023/07/13 05:12:25;;;;;;;6.63;1.33;;;16.30;99.90;;;;;;5056358;28;20449;-52
2023/07/13 05:14:51;;;;;;;3.03;1.40;;;16.30;99.90;;;;;;5056443;28;20024;-47
2023/07/13 05:17:17;;;;;;;5.57;1.25;;;16.40;99.90;;;;;;5056630;28;20396;-49
2023/07/13 05:19:43;;;;;;;3.75;1.45;;;16.40;99.90;;;;;;5056591;28;20025;-52
2023/07/13 05:22:08;;;;;;;5.45;1.40;;;16.40;99.90;;;;;;5056282;28;20378;-54
2023/07/13 05:24:34;;;;;;;5.03;1.65;;;16.40;99.90;;;;;;5056152;28;20072;-52
2023/07/13 05:26:59;;;;;;;9.18;2.05;;;16.40;99.90;;;;;;5056240;28;20439;-51
2023/07/13 05:29:25;;;;;;;7.97;1.67;;;16.40;99.90;;;;;;5056154;28;20029;-50
2023/07/13 05:31:51;;;;;;;6.15;1.75;;;16.40;99.90;;;;;;5054018;28;20033;-49
2023/07/13 05:34:17;;;;;;;3.85;1.70;;;16.50;99.90;;;;;;5054940;28;20032;-53
2023/07/13 05:36:43;;;;;;;8.55;1.83;;;16.50;99.90;;;;;;5054985;28;20025;-49
2023/07/13 05:39:08;;;;;;;5.43;1.90;;;16.70;99.90;;;;;;5056282;28;20032;-54
2023/07/13 05:41:35;;;;;;;6.43;2.03;;;16.60;99.90;;;;;;5055689;28;20036;-49
2023/07/13 05:44:00;;;;;;;5.93;1.50;;;16.60;99.90;;;;;;5056071;28;20205;-47
2023/07/13 05:46:26;;;;;;;5.22;1.45;;;16.60;99.90;;;;;;5056137;28;20616;-49
2023/07/13 05:48:52;;;;;;;6.03;1.42;;;16.60;99.90;;;;;;5056103;28;20078;-48
2023/07/13 05:51:17;;;;;;;6.60;1.60;;;16.60;99.90;;;;;;5056102;28;20028;-51
2023/07/13 05:53:43;;;;;;;6.50;1.95;;;16.60;99.90;;;;;;5056052;28;20071;-52
2023/07/13 05:56:08;;;;;;;8.45;1.75;;;16.60;99.90;;;;;;5055922;28;20033;-50
2023/07/13 05:58:34;;;;;;;8.45;1.77;;;16.70;99.90;;;;;;5055923;28;20032;-48
2023/07/13 06:01:05;;;;;;;9.75;2.15;;;16.80;99.90;;;;;;5056164;28;20509;-47
2023/07/13 06:03:32;;;;;;;8.02;1.98;;;16.70;99.90;;;;;;5055527;28;20044;-48
2023/07/13 06:06:00;;;;;;;4.10;1.65;;;16.70;99.90;;;;;;5055726;28;20049;-52
2023/07/13 06:08:26;;;;;;;4.78;1.65;;;16.70;99.90;;;;;;5055926;28;20032;-48
2023/07/13 06:10:52;;;;;;;5.57;1.85;;;16.70;99.90;;;;;;5056424;28;20033;-50
2023/07/13 06:13:19;;;;;;;7.63;1.85;;;16.80;99.90;;;;;;5055632;28;20409;-50
2023/07/13 06:15:51;;;;;;;3.10;1.60;;;16.80;99.90;;;;;;5055234;28;20087;-47
2023/07/13 06:18:16;;;;;;;6.55;1.60;;;16.90;99.90;;;;;;5055349;28;20156;-47
2023/07/13 06:20:42;;;;;;;7.72;2.10;;;17.00;99.90;;;;;;5055721;28;20052;-47
2023/07/13 06:23:08;;;;;;;5.82;2.15;;;17.10;99.90;;;;;;5036919;28;20043;-49
2023/07/13 06:25:34;;;;;;;6.38;2.30;;;17.20;99.90;;;;;;5055350;28;20363;-48
2023/07/13 06:28:00;;;;;;;4.72;1.85;;;17.10;99.90;;;;;;5055183;28;20052;-50
2023/07/13 06:30:26;;;;;;;10.85;2.60;;;17.20;99.90;;;;;;5055638;28;20039;-50
2023/07/13 06:32:52;;;;;;;5.55;2.00;;;17.30;99.90;;;;;;5054782;28;20112;-51
2023/07/13 06:35:18;;;;;;;37.40;17.40;;;17.40;99.90;;;;;;5037272;28;20316;-48
2023/07/13 06:37:44;;;;;;;16.15;6.45;;;17.40;99.90;;;;;;5055403;28;20025;-52
2023/07/13 06:40:10;;;;;;;9.07;3.00;;;17.40;99.90;;;;;;5054874;28;20029;-51
2023/07/13 06:42:35;;;;;;;7.30;2.95;;;17.50;99.90;;;;;;5054560;28;20029;-47
2023/07/13 06:45:02;;;;;;;8.90;2.00;;;17.50;99.90;;;;;;5037034;28;20044;-51
2023/07/13 06:47:27;;;;;;;6.80;2.13;;;17.70;99.90;;;;;;5054919;28;20060;-49
2023/07/13 06:49:53;;;;;;;6.32;2.25;;;17.80;99.90;;;;;;5055089;28;20059;-47
2023/07/13 06:52:18;;;;;;;9.32;1.98;;;18.00;99.90;;;;;;5054671;28;20028;-49
2023/07/13 06:54:44;;;;;;;7.93;2.30;;;18.10;99.90;;;;;;5054672;28;20025;-49
2023/07/13 06:57:10;;;;;;;7.80;2.00;;;18.20;99.90;;;;;;5054318;28;20047;-47
2023/07/13 06:59:35;;;;;;;9.60;2.20;;;18.20;99.90;;;;;;5054102;28;20436;-53
2023/07/13 07:02:01;;;;;;;6.63;1.95;;;18.10;99.90;;;;;;5053883;28;20147;-48
2023/07/13 07:04:26;;;;;;;5.43;1.90;;;18.10;99.90;;;;;;5054391;28;20595;-48
2023/07/13 07:06:52;;;;;;;6.50;2.08;;;18.00;99.90;;;;;;5054079;28;20055;-49
2023/07/13 07:09:18;;;;;;;4.93;1.90;;;17.90;99.90;;;;;;5035475;28;20060;-48
2023/07/13 07:11:44;;;;;;;4.43;1.77;;;17.80;99.90;;;;;;5054955;28;20469;-53
2023/07/13 07:14:09;;;;;;;5.50;1.95;;;17.90;99.90;;;;;;5054960;28;20021;-52
2023/07/13 07:16:35;;;;;;;7.25;2.47;;;18.00;99.90;;;;;;5036717;28;20033;-52
2023/07/13 07:19:00;;;;;;;2.65;1.35;;;18.00;99.90;;;;;;5054275;28;20031;-51
2023/07/13 07:21:27;;;;;;;4.88;2.05;;;17.90;99.90;;;;;;5054022;28;20111;-53
2023/07/13 07:23:52;;;;;;;8.80;1.88;;;17.90;99.90;;;;;;5054252;28;20052;-51
2023/07/13 07:26:18;;;;;;;7.38;1.95;;;17.90;99.90;;;;;;5053774;28;20465;-51
2023/07/13 07:28:44;;;;;;;6.03;1.60;;;18.00;99.90;;;;;;5053878;28;20436;-53
2023/07/13 07:31:10;;;;;;;6.10;1.90;;;18.10;99.90;;;;;;5054197;28;20028;-51
2023/07/13 07:33:36;;;;;;;6.97;2.17;;;18.30;99.90;;;;;;5053657;28;20021;-51
2023/07/13 07:36:02;;;;;;;7.97;2.00;;;18.20;99.90;;;;;;5053448;28;20497;-48
2023/07/13 07:38:28;;;;;;;7.60;2.35;;;18.20;99.90;;;;;;5054039;28;20036;-50
2023/07/13 07:40:54;;;;;;;6.00;2.10;;;18.20;99.90;;;;;;5053640;28;20409;-48
2023/07/13 07:43:19;;;;;;;8.23;2.72;;;18.10;99.90;;;;;;5053330;28;20056;-51
2023/07/13 07:45:46;;;;;;;5.95;1.90;;;18.00;99.90;;;;;;5053243;28;20543;-52
2023/07/13 07:48:12;;;;;;;6.72;2.70;;;18.10;99.90;;;;;;5054108;28;20048;-49
2023/07/13 07:50:38;;;;;;;21.02;9.50;;;18.10;99.90;;;;;;5035549;28;20477;-49
2023/07/13 07:53:07;;;;;;;15.07;4.10;;;18.20;99.90;;;;;;5035286;28;20036;-48
2023/07/13 07:55:34;;;;;;;6.32;2.33;;;18.20;99.90;;;;;;5053023;28;20299;-51
2023/07/13 07:57:59;;;;;;;5.38;2.25;;;18.30;99.90;;;;;;5053611;28;20029;-52
2023/07/13 08:00:25;;;;;;;7.25;2.13;;;18.30;99.90;;;;;;5053076;28;20055;-51
2023/07/13 08:02:51;;;;;;;5.40;2.38;;;18.30;99.90;;;;;;5053517;28;20029;-52
2023/07/13 08:05:17;;;;;;;5.97;2.33;;;18.20;99.90;;;;;;5053237;28;20036;-53
2023/07/13 08:07:42;;;;;;;5.50;2.45;;;18.30;99.90;;;;;;5053600;28;20051;-51
2023/07/13 08:10:09;;;;;;;5.03;2.17;;;18.30;99.90;;;;;;5053503;28;20033;-53
2023/07/13 08:12:39;;;;;;;6.95;1.88;;;18.30;99.90;;;;;;5053169;28;20032;-53
2023/07/13 08:15:05;;;;;;;8.40;3.08;;;18.50;99.90;;;;;;5052989;28;20025;-52
2023/07/13 08:17:31;;;;;;;12.48;4.57;;;18.50;99.90;;;;;;5052882;28;20040;-52
2023/07/13 08:19:57;;;;;;;16.83;9.18;;;18.50;99.90;;;;;;5053221;28;20351;-53
2023/07/13 08:22:22;;;;;;;8.32;4.95;;;18.50;99.90;;;;;;5053601;28;20044;-49
2023/07/13 08:24:55;;;;;;;11.27;5.32;;;18.70;99.90;;;;;;5053420;28;20037;-49
2023/07/13 08:27:21;;;;;;;10.25;4.10;;;18.90;99.90;;;;;;5053076;28;20115;-50
2023/07/13 08:29:48;;;;;;;8.75;2.70;;;19.00;99.90;;;;;;5053667;28;20072;-52
2023/07/13 08:32:14;;;;;;;10.50;4.40;;;19.10;99.90;;;;;;5053029;28;20552;-50
2023/07/13 08:34:40;;;;;;;11.52;5.28;;;19.30;99.90;;;;;;5053655;28;20041;-52
2023/07/13 08:37:06;;;;;;;7.75;3.30;;;19.40;99.90;;;;;;5053520;28;20028;-51
2023/07/13 08:39:32;;;;;;;8.85;3.88;;;19.40;99.90;;;;;;5034995;28;20029;-51
2023/07/13 08:42:13;;;;;;;6.30;2.08;;;19.40;99.90;;;;;;5035272;28;20052;-50
2023/07/13 08:45:11;;;;;;;6.68;2.00;;;19.40;99.90;;;;;;5034893;28;20033;-49
2023/07/13 08:47:47;;;;;;;8.68;2.20;;;19.50;99.90;;;;;;5035858;28;20043;-50
2023/07/13 08:50:16;;;;;;;5.20;1.50;;;19.50;99.90;;;;;;5053097;28;20033;-53
2023/07/13 08:52:43;;;;;;;3.90;1.60;;;19.50;99.90;;;;;;5053236;28;20389;-53
2023/07/13 08:55:20;;;;;;;5.75;1.90;;;19.50;99.90;;;;;;5052554;28;20089;-51
2023/07/13 08:57:52;;;;;;;2.40;1.70;;;19.40;99.90;;;;;;5053041;28;20048;-50
2023/07/13 09:00:18;;;;;;;5.45;1.60;;;19.40;99.90;;;;;;5053001;28;20063;-50
2023/07/13 09:02:56;;;;;;;3.92;1.70;;;19.40;99.90;;;;;;5052475;28;20086;-50
2023/07/13 09:05:24;;;;;;;5.95;1.40;;;19.50;99.90;;;;;;5052107;28;20075;-50
2023/07/13 09:08:21;;;;;;;7.25;1.80;;;19.50;99.90;;;;;;5036918;28;20134;-49
2023/07/13 09:10:52;;;;;;;5.25;2.10;;;19.70;99.90;;;;;;5056308;28;20043;-48
2023/07/13 09:13:49;;;;;;;5.45;1.88;;;19.60;99.90;;;;;;5037862;28;20069;-48
2023/07/13 09:16:15;;;;;;;5.95;1.60;;;19.60;99.90;;;;;;5055813;28;20021;-48
2023/07/13 09:18:51;;;;;;;6.78;2.00;;;19.60;99.90;;;;;;5055615;28;20086;-52
2023/07/13 09:21:23;;;;;;;4.00;1.80;;;19.70;99.90;;;;;;5037975;28;20076;-48
2023/07/13 09:23:53;;;;;;;7.28;2.00;;;19.90;99.90;;;;;;5055472;28;20021;-50
2023/07/13 09:26:21;;;;;;;6.80;1.85;;;20.00;99.90;;;;;;5055522;28;20481;-52
2023/07/13 09:29:12;;;;;;;8.23;2.20;;;20.10;99.90;;;;;;5055093;28;20501;-52
2023/07/13 09:31:46;;;;;;;5.90;1.80;;;20.20;99.90;;;;;;5054610;28;20037;-50
2023/07/13 09:34:13;;;;;;;5.63;2.03;;;20.20;99.90;;;;;;5054464;28;20017;-52
2023/07/13 09:36:39;;;;;;;9.20;2.40;;;20.30;99.90;;;;;;5054706;28;20034;-52
2023/07/13 09:39:07;;;;;;;5.88;2.15;;;20.40;99.90;;;;;;5054611;28;20021;-52
2023/07/13 09:41:55;;;;;;;5.63;1.90;;;20.60;99.90;;;;;;5055523;28;20039;-52
2023/07/13 09:44:54;;;;;;;6.22;1.77;;;20.80;99.90;;;;;;5055682;28;20033;-51
2023/07/13 09:47:29;;;;;;;7.07;2.08;;;21.00;99.90;;;;;;5055456;28;20041;-52
2023/07/13 09:50:03;;;;;;;5.65;1.50;;;21.20;99.90;;;;;;5055652;28;20089;-53
2023/07/13 09:52:42;;;;;;;6.35;1.60;;;20.90;99.90;;;;;;5054714;28;20037;-52
2023/07/13 09:55:26;;;;;;;;;;;20.70;99.90;;;;;;5056149;28;20029;-53
2023/07/13 09:57:52;;;;;;;7.65;1.67;;;20.60;99.90;;;;;;5055444;28;20320;-52
2023/07/13 10:00:24;;;;;;;5.90;1.58;;;20.40;99.90;;;;;;5055404;28;20076;-53
2023/07/13 10:03:03;;;;;;;4.43;1.60;;;20.30;99.90;;;;;;5054803;28;20037;-51
2023/07/13 10:05:41;;;;;;;5.20;2.20;;;20.30;99.90;;;;;;5054998;28;20036;-52
2023/07/13 10:08:27;;;;;;;3.58;1.52;;;20.50;99.90;;;;;;5054802;28;20444;-52
2023/07/13 10:11:25;;;;;;;5.63;1.60;;;20.70;99.90;;;;;;5054822;28;20393;-53
2023/07/13 10:13:56;;;;;;;7.00;1.98;;;20.90;99.90;;;;;;5043221;28;20143;-52
2023/07/13 10:16:24;;;;;;;13.27;5.65;;;21.10;99.90;;;;;;5054947;28;20116;-53
2023/07/13 10:18:55;;;;;;;13.57;6.33;;;21.20;99.90;;;;;;5054337;28;20060;-52
2023/07/13 10:21:26;;;;;;;11.98;5.38;;;21.30;99.90;;;;;;5054913;28;20472;-52
2023/07/13 10:23:55;;;;;;;11.68;4.55;;;21.20;99.90;;;;;;5054798;28;20114;-51
2023/07/13 10:26:23;;;;;;;;;;;21.00;99.90;;;;;;5055264;28;20020;-52
2023/07/13 10:28:52;;;;;;;;;;;21.10;99.90;;;;;;5055028;28;20360;-52
2023/07/13 10:31:19;;;;;;;3.25;1.52;;;21.20;99.90;;;;;;5054566;28;19909;-52
2023/07/13 10:33:45;;;;;;;7.60;2.60;;;21.40;99.90;;;;;;5053982;28;20033;-53
2023/07/13 10:36:17;;;;;;;5.63;1.80;;;21.50;99.90;;;;;;5054574;28;20029;-52
2023/07/13 10:38:44;;;;;;;6.28;2.17;;;21.70;99.90;;;;;;5054927;28;20033;-53
2023/07/13 10:41:22;;;;;;;9.57;4.18;;;22.00;99.90;;;;;;5054646;28;20025;-51
2023/07/13 10:43:51;;;;;;;4.75;2.28;;;22.00;99.90;;;;;;5054187;28;20025;-50
2023/07/13 10:46:20;;;;;;;6.28;2.88;;;22.10;99.90;;;;;;5054231;28;20032;-53
2023/07/13 10:48:50;;;;;;;5.95;2.22;;;22.00;99.90;;;;;;5036388;28;20028;-50
2023/07/13 10:51:20;;;;;;;5.15;1.92;;;21.80;99.00;;;;;;5054196;28;20478;-52
2023/07/13 10:53:46;;;;;;;7.13;2.30;;;21.90;99.40;;;;;;5053898;28;20465;-53
2023/07/13 10:56:27;;;;;;;9.45;2.28;;;22.10;99.20;;;;;;5053668;28;20063;-52
2023/07/13 10:59:11;;;;;;;4.68;1.55;;;22.00;98.80;;;;;;5054165;28;20036;-49
2023/07/13 11:01:52;;;;;;;5.28;1.40;;;22.00;99.40;;;;;;5053715;28;20069;-51
2023/07/13 11:04:20;;;;;;;8.52;2.95;;;21.90;99.10;;;;;;5053495;28;20078;-52
2023/07/13 11:06:49;;;;;;;11.32;5.72;;;22.00;99.10;;;;;;5053519;28;20033;-51
2023/07/13 11:09:32;;;;;;;4.93;2.28;;;22.00;99.00;;;;;;5053728;28;20029;-50
2023/07/13 11:12:06;;;;;;;6.15;2.38;;;22.10;98.60;;;;;;5053480;28;20025;-52
2023/07/13 11:15:02;;;;;;;5.22;1.67;;;22.30;98.20;;;;;;5053182;28;20043;-51
2023/07/13 11:17:27;;;;;;;4.10;1.80;;;22.40;97.90;;;;;;5053710;28;20021;-52
2023/07/13 11:19:53;;;;;;;5.50;1.85;;;22.40;98.00;;;;;;5053799;28;20061;-52
2023/07/13 11:22:25;;;;;;;6.30;2.10;;;22.40;98.10;;;;;;5053139;28;20096;-52
2023/07/13 11:24:58;;;;;;;3.05;1.40;;;22.50;98.00;;;;;;5053001;28;20501;-51
2023/07/13 11:27:38;;;;;;;3.85;1.52;;;22.40;98.00;;;;;;5053796;28;20481;-49
2023/07/13 11:30:27;;;;;;;5.15;1.52;;;22.40;97.80;;;;;;5052715;28;20400;-51
2023/07/13 11:33:17;;;;;;;6.90;1.48;;;22.50;95.20;;;;;;5053141;28;20087;-52
2023/07/13 11:35:58;;;;;;;3.25;1.02;;;22.30;96.10;;;;;;5053389;28;20036;-51
2023/07/13 11:38:36;;;;;;;4.53;1.60;;;22.40;95.50;;;;;;5053667;28;20032;-49
2023/07/13 11:41:16;;;;;;;4.53;1.25;;;22.30;95.80;;;;;;5052934;28;20029;-52
2023/07/13 11:43:43;;;;;;;2.78;1.45;;;22.40;96.40;;;;;;5053512;28;20543;-52
2023/07/13 11:46:19;;;;;;;3.92;1.33;;;22.50;96.50;;;;;;5053413;28;20469;-48
2023/07/13 11:48:47;;;;;;;5.53;1.70;;;22.70;96.20;;;;;;5053090;28;20043;-48
2023/07/13 11:51:30;;;;;;;2.22;1.15;;;22.90;95.30;;;;;;5052987;28;20044;-51
2023/07/13 11:53:59;;;;;;;3.15;1.10;;;23.10;94.00;;;;;;5053536;28;20156;-51
2023/07/13 11:56:25;;;;;;;5.25;1.48;;;23.30;94.30;;;;;;5053310;28;20535;-47
2023/07/13 11:58:54;;;;;;;5.05;1.08;;;23.50;93.20;;;;;;5053163;28;20021;-47
2023/07/13 12:01:25;;;;;;;4.07;1.52;;;23.40;92.90;;;;;;5053322;28;20033;-49
2023/07/13 12:03:53;;;;;;;4.95;1.58;;;23.50;93.20;;;;;;5035881;28;20043;-47
2023/07/13 12:06:31;;;;;;;2.30;1.40;;;23.50;93.30;;;;;;5053083;28;20025;-46
2023/07/13 12:08:59;;;;;;;4.40;1.30;;;23.40;93.30;;;;;;5052028;28;20722;-46
2023/07/13 12:11:25;;;;;;;2.83;1.27;;;23.40;93.40;;;;;;5053107;28;20040;-52
2023/07/13 12:13:50;;;;;;;4.05;1.33;;;23.30;93.40;;;;;;5035351;28;20025;-53
2023/07/13 12:16:21;;;;;;;5.68;1.65;;;23.30;93.50;;;;;;5035238;28;20029;-53
2023/07/13 12:18:47;;;;;;;6.65;1.52;;;23.20;93.40;;;;;;5052985;28;20040;-51
2023/07/13 12:21:17;;;;;;;6.05;2.15;;;23.20;92.90;;;;;;5034927;28;20028;-48
2023/07/13 12:23:44;;;;;;;9.98;3.35;;;23.20;93.30;;;;;;5052753;28;20040;-53
2023/07/13 12:26:12;;;;;;;5.72;2.58;;;23.10;92.90;;;;;;5035421;28;20040;-52
2023/07/13 12:28:56;;;;;;;4.68;2.35;;;23.10;92.80;;;;;;5053038;28;20036;-52
2023/07/13 12:31:26;;;;;;;6.15;1.90;;;23.00;92.70;;;;;;5052820;28;20025;-52
2023/07/13 12:34:01;;;;;;;5.03;1.55;;;22.90;92.20;;;;;;5052163;28;20032;-48
2023/07/13 12:36:30;;;;;;;2.05;1.10;;;22.80;92.30;;;;;;5052282;28;20029;-51
2023/07/13 12:38:56;;;;;;;;;;;22.70;92.30;;;;;;5052977;28;20133;-52
2023/07/13 12:41:23;;;;;;;3.72;1.33;;;22.70;92.50;;;;;;5054097;28;19916;-52
2023/07/13 12:43:49;;;;;;;4.18;1.55;;;22.60;93.00;;;;;;5038250;28;20055;-50
2023/07/13 12:46:23;;;;;;;3.00;1.15;;;22.50;93.30;;;;;;5056283;28;20100;-51
2023/07/13 12:48:54;;;;;;;6.70;1.20;;;22.40;93.70;;;;;;5056885;28;20481;-52
2023/07/13 12:51:25;;;;;;;3.60;1.45;;;22.30;93.70;;;;;;5056094;28;20469;-50
2023/07/13 12:54:04;;;;;;;2.97;1.20;;;22.30;93.60;;;;;;5056079;28;20367;-49
2023/07/13 12:56:33;;;;;;;4.80;1.63;;;22.30;93.30;;;;;;5056106;28;20061;-51